Time;durP1;ratioP1;P1;durP2;ratioP2;P2;SDS_P1;SDS_P2;PMS_P1;PMS_P2;Temp;Humidity;BMP_temperature;BMP_pressure;BME280_temperature;BME280_humidity;BME280_pressure;Samples;Min_cycle;Max_cycle;Signal;HPM_P1;HPM_P2
2022/07/05 00:01:55;;;;;;;2.88;2.42;;;15.70;99.90;;;;;;5034756;28;20033;-38
2022/07/05 00:04:21;;;;;;;3.33;2.65;;;15.70;99.90;;;;;;5015471;28;20025;-39
2022/07/05 00:09:31;;;;;;;4.60;3.50;;;15.60;99.90;;;;;;5034047;28;20079;-40
2022/07/05 00:11:57;;;;;;;5.28;3.50;;;15.60;99.90;;;;;;5034207;28;20038;-39
2022/07/05 00:14:22;;;;;;;3.67;3.33;;;15.60;99.90;;;;;;5031959;28;20473;-36
2022/07/05 00:16:49;;;;;;;5.15;3.63;;;15.60;99.90;;;;;;5032707;28;20440;-39
2022/07/05 00:19:15;;;;;;;6.70;2.97;;;15.60;99.90;;;;;;5033560;28;20032;-39
2022/07/05 00:21:40;;;;;;;3.20;2.90;;;15.60;99.90;;;;;;5034445;28;20481;-40
2022/07/05 00:24:06;;;;;;;4.18;3.35;;;15.50;99.90;;;;;;5033768;28;20078;-39
2022/07/05 00:26:32;;;;;;;3.88;2.75;;;15.50;99.90;;;;;;5032866;28;20029;-39
2022/07/05 00:28:57;;;;;;;4.97;3.63;;;15.40;99.90;;;;;;5031914;28;20037;-38
2022/07/05 00:31:23;;;;;;;4.95;3.30;;;15.40;99.90;;;;;;5032604;28;20444;-40
2022/07/05 00:33:48;;;;;;;5.65;3.85;;;15.30;99.90;;;;;;5033359;28;20030;-41
2022/07/05 00:36:14;;;;;;;5.20;3.05;;;15.30;99.90;;;;;;5033527;28;20500;-40
2022/07/05 00:38:40;;;;;;;7.43;3.40;;;15.30;99.90;;;;;;5034100;28;20029;-39
2022/07/05 00:41:05;;;;;;;5.28;3.10;;;15.20;99.90;;;;;;5033229;28;20432;-50
2022/07/05 00:43:31;;;;;;;6.15;3.28;;;15.20;99.90;;;;;;5033414;28;20076;-39
2022/07/05 00:45:56;;;;;;;3.80;3.20;;;15.20;99.90;;;;;;5017802;28;20018;-38
2022/07/05 00:48:22;;;;;;;3.53;3.22;;;15.20;99.90;;;;;;5014274;28;20105;-39
2022/07/05 00:50:50;;;;;;;5.25;3.35;;;15.20;99.90;;;;;;5027301;28;20030;-39
2022/07/05 00:53:16;;;;;;;2.88;2.60;;;15.20;99.90;;;;;;5032178;28;20104;-39
2022/07/05 00:55:44;;;;;;;4.20;2.95;;;15.20;99.90;;;;;;5032148;28;20061;-39
2022/07/05 00:58:10;;;;;;;7.95;2.92;;;15.30;99.90;;;;;;5032512;28;20025;-39
2022/07/05 01:00:36;;;;;;;3.53;3.22;;;15.30;99.90;;;;;;4998444;28;20042;-39
2022/07/05 01:03:03;;;;;;;6.68;3.55;;;15.30;99.90;;;;;;5018900;28;20473;-39
2022/07/05 01:05:29;;;;;;;7.40;4.20;;;15.30;99.90;;;;;;5032969;28;20017;-38
2022/07/05 01:07:56;;;;;;;5.10;3.55;;;15.40;99.90;;;;;;5033570;28;20029;-41
2022/07/05 01:10:22;;;;;;;5.57;4.00;;;15.40;99.90;;;;;;5032736;28;20540;-44
2022/07/05 01:12:48;;;;;;;6.28;4.15;;;15.50;99.90;;;;;;5032109;28;20057;-31
2022/07/05 01:15:13;;;;;;;7.38;3.65;;;15.50;99.90;;;;;;5032661;28;20021;-36
2022/07/05 01:17:41;;;;;;;6.60;3.83;;;15.50;99.90;;;;;;5032809;28;20104;-32
2022/07/05 01:20:07;;;;;;;4.03;3.65;;;15.50;99.90;;;;;;5013438;28;20079;-36
2022/07/05 01:22:55;;;;;;;4.35;3.95;;;15.50;99.90;;;;;;5030367;28;20555;-35
2022/07/05 01:25:23;;;;;;;5.88;3.47;;;15.60;99.90;;;;;;5033397;28;20492;-36
2022/07/05 01:27:49;;;;;;;;;;;15.60;99.90;;;;;;5032325;28;20105;-38
2022/07/05 01:30:16;;;;;;;5.35;3.65;;;15.60;99.90;;;;;;5031867;28;20365;-30
2022/07/05 01:32:42;;;;;;;5.72;3.53;;;15.60;99.90;;;;;;5029973;28;20032;-35
2022/07/05 01:35:10;;;;;;;7.35;4.15;;;15.50;99.90;;;;;;5030784;28;20026;-33
2022/07/05 01:37:37;;;;;;;3.75;3.08;;;15.50;99.90;;;;;;5033265;28;20029;-48
2022/07/05 01:40:04;;;;;;;7.70;3.58;;;15.40;99.90;;;;;;5032582;28;20025;-34
2022/07/05 01:42:30;;;;;;;5.60;3.47;;;15.40;99.90;;;;;;5030540;28;20559;-35
2022/07/05 01:44:55;;;;;;;7.65;4.22;;;15.40;99.90;;;;;;5014380;28;20046;-34
2022/07/05 01:47:22;;;;;;;8.75;4.60;;;15.50;99.90;;;;;;5018551;28;20028;-32
2022/07/05 01:49:50;;;;;;;6.05;4.10;;;15.50;99.90;;;;;;5033090;28;20033;-35
2022/07/05 01:52:19;;;;;;;7.40;4.40;;;15.50;99.90;;;;;;5032301;28;20297;-32
2022/07/05 01:54:45;;;;;;;7.90;3.90;;;15.50;99.90;;;;;;5032934;28;20434;-32
2022/07/05 01:57:11;;;;;;;6.95;4.28;;;15.50;99.90;;;;;;5033072;28;20118;-31
2022/07/05 01:59:37;;;;;;;5.43;4.15;;;15.50;99.90;;;;;;5009308;28;20030;-33
2022/07/05 02:02:07;;;;;;;5.03;4.53;;;15.50;99.90;;;;;;5020100;28;20531;-33
2022/07/05 02:04:36;;;;;;;7.70;4.80;;;15.50;99.90;;;;;;5033080;28;20025;-34
2022/07/05 02:07:06;;;;;;;7.45;5.35;;;15.50;99.90;;;;;;5030927;28;20022;-30
2022/07/05 02:09:32;;;;;;;7.35;4.90;;;15.50;99.90;;;;;;5015410;28;20061;-48
2022/07/05 02:11:58;;;;;;;9.02;4.65;;;15.50;99.90;;;;;;5032756;28;20503;-39
2022/07/05 02:14:24;;;;;;;7.97;5.25;;;15.50;99.90;;;;;;5032846;28;20099;-39
2022/07/05 02:16:49;;;;;;;8.65;4.70;;;15.60;99.90;;;;;;5014346;28;20021;-39
2022/07/05 02:19:15;;;;;;;7.10;5.10;;;15.60;99.90;;;;;;5012355;28;20033;-39
2022/07/05 02:21:41;;;;;;;7.22;4.95;;;15.60;99.90;;;;;;5018641;28;20108;-39
2022/07/05 02:24:07;;;;;;;10.13;5.07;;;15.60;99.90;;;;;;5031694;28;20022;-38
2022/07/05 02:26:32;;;;;;;5.55;4.55;;;15.60;99.90;;;;;;5030212;28;20032;-38
2022/07/05 02:28:59;;;;;;;6.82;4.20;;;15.50;99.90;;;;;;5028622;28;20037;-44
2022/07/05 02:31:24;;;;;;;9.23;5.78;;;15.50;99.90;;;;;;5016231;28;20038;-60
2022/07/05 02:33:52;;;;;;;6.95;5.20;;;15.40;99.90;;;;;;5031699;28;20472;-39
2022/07/05 02:36:17;;;;;;;6.53;5.10;;;15.40;99.90;;;;;;5035327;28;20032;-39
2022/07/05 02:38:43;;;;;;;12.30;5.38;;;15.30;99.90;;;;;;5039721;28;20033;-39
2022/07/05 02:41:10;;;;;;;10.77;6.15;;;15.20;99.90;;;;;;5034934;28;20029;-41
2022/07/05 02:43:38;;;;;;;9.55;6.32;;;15.20;99.90;;;;;;5035232;28;20504;-29
2022/07/05 02:46:04;;;;;;;6.32;4.25;;;15.20;99.90;;;;;;5035553;28;20013;-30
2022/07/05 02:48:30;;;;;;;5.47;4.93;;;15.20;99.90;;;;;;5034775;28;20057;-34
2022/07/05 02:50:56;;;;;;;8.52;5.72;;;15.20;99.90;;;;;;5034618;28;20090;-35
2022/07/05 02:53:23;;;;;;;8.35;5.80;;;15.10;99.90;;;;;;5034356;28;20025;-29
2022/07/05 02:55:48;;;;;;;11.68;6.13;;;15.20;99.90;;;;;;5035559;28;20469;-41
2022/07/05 02:58:14;;;;;;;11.23;5.70;;;15.20;99.90;;;;;;5034667;28;20048;-36
2022/07/05 03:00:40;;;;;;;6.60;5.30;;;15.20;99.90;;;;;;5032705;28;20470;-34
2022/07/05 03:03:06;;;;;;;8.93;5.50;;;15.20;99.90;;;;;;5031815;28;20075;-33
2022/07/05 03:05:31;;;;;;;8.68;5.80;;;15.20;99.90;;;;;;5033082;28;20544;-34
2022/07/05 03:07:57;;;;;;;11.02;5.50;;;15.20;99.90;;;;;;5033749;28;20028;-49
2022/07/05 03:10:22;;;;;;;12.23;4.93;;;15.20;99.90;;;;;;5034883;28;20022;-40
2022/07/05 03:12:48;;;;;;;8.73;6.20;;;15.20;99.90;;;;;;5034765;28;20408;-39
2022/07/05 03:15:14;;;;;;;7.93;5.43;;;15.20;99.90;;;;;;5034698;28;20025;-40
2022/07/05 03:17:39;;;;;;;9.88;5.57;;;15.30;99.90;;;;;;5034699;28;20053;-39
2022/07/05 03:20:05;;;;;;;7.22;5.85;;;15.30;99.90;;;;;;5017003;28;20033;-40
2022/07/05 03:22:31;;;;;;;8.52;5.57;;;15.30;99.90;;;;;;5034521;28;20029;-63
2022/07/05 03:24:56;;;;;;;6.97;4.65;;;15.30;99.90;;;;;;5018738;28;20022;-40
2022/07/05 03:27:22;;;;;;;9.07;5.78;;;15.30;99.90;;;;;;5033214;28;20037;-39
2022/07/05 03:29:48;;;;;;;7.47;5.32;;;15.30;99.90;;;;;;5013877;28;20061;-39
2022/07/05 03:32:13;;;;;;;9.63;5.90;;;15.30;99.90;;;;;;5029730;28;20087;-40
2022/07/05 03:34:39;;;;;;;7.88;6.07;;;15.30;99.90;;;;;;5034927;28;20373;-50
2022/07/05 03:37:04;;;;;;;10.18;6.25;;;15.30;99.90;;;;;;5033490;28;20025;-38
2022/07/05 03:39:30;;;;;;;11.18;5.85;;;15.30;99.90;;;;;;5032073;28;20029;-38
2022/07/05 03:41:56;;;;;;;9.88;6.32;;;15.40;99.90;;;;;;5034291;28;20112;-40
2022/07/05 03:44:21;;;;;;;8.02;5.82;;;15.40;99.90;;;;;;5034489;28;20053;-40
2022/07/05 03:46:47;;;;;;;10.73;5.60;;;15.40;99.90;;;;;;5032983;28;20166;-43
2022/07/05 03:49:13;;;;;;;8.88;5.85;;;15.40;99.90;;;;;;5016654;28;20026;-40
2022/07/05 03:51:38;;;;;;;9.88;5.40;;;15.40;99.90;;;;;;5006855;28;20041;-32
2022/07/05 03:54:04;;;;;;;9.68;5.88;;;15.50;99.90;;;;;;5016027;28;20037;-33
2022/07/05 03:56:29;;;;;;;12.57;6.97;;;15.50;99.90;;;;;;5032941;28;20440;-35
2022/07/05 03:58:55;;;;;;;7.28;5.97;;;15.50;99.90;;;;;;5033486;28;20029;-32
2022/07/05 04:01:21;;;;;;;7.65;6.20;;;15.60;99.90;;;;;;5014936;28;20022;-40
2022/07/05 04:03:47;;;;;;;7.53;5.07;;;15.60;99.90;;;;;;5028218;28;20026;-30
2022/07/05 04:06:13;;;;;;;8.25;6.22;;;15.60;99.90;;;;;;5023224;28;20025;-38
2022/07/05 04:08:39;;;;;;;8.60;5.97;;;15.70;99.90;;;;;;5033320;28;20033;-33
2022/07/05 04:11:05;;;;;;;9.25;6.50;;;15.80;99.90;;;;;;5033152;28;20116;-31
2022/07/05 04:13:31;;;;;;;6.88;4.95;;;15.70;99.90;;;;;;5033770;28;20022;-46
2022/07/05 04:15:57;;;;;;;11.50;6.78;;;15.80;99.90;;;;;;5033159;28;20024;-32
2022/07/05 04:18:23;;;;;;;9.25;5.72;;;15.80;99.90;;;;;;5034008;28;20491;-39
2022/07/05 04:20:48;;;;;;;8.10;5.50;;;15.80;99.90;;;;;;5032713;28;20021;-48
2022/07/05 04:23:14;;;;;;;7.88;5.70;;;15.90;99.90;;;;;;5032772;28;20072;-40
2022/07/05 04:25:40;;;;;;;13.52;6.43;;;15.90;99.90;;;;;;5033466;28;20572;-39
2022/07/05 04:28:06;;;;;;;8.88;5.60;;;15.90;99.90;;;;;;5033647;28;20428;-39
2022/07/05 04:30:31;;;;;;;10.05;5.90;;;16.00;99.90;;;;;;5033570;28;20104;-39
2022/07/05 04:32:57;;;;;;;7.50;5.63;;;16.00;99.90;;;;;;5033327;28;20083;-41
2022/07/05 04:35:23;;;;;;;8.07;6.15;;;16.00;99.90;;;;;;5032088;28;20075;-39
2022/07/05 04:37:49;;;;;;;14.07;7.22;;;16.10;99.90;;;;;;5033625;28;20032;-40
2022/07/05 04:40:16;;;;;;;9.25;6.22;;;16.10;99.90;;;;;;5033356;28;20026;-34
2022/07/05 04:42:42;;;;;;;8.30;5.72;;;16.20;99.90;;;;;;5032224;28;20580;-33
2022/07/05 04:45:09;;;;;;;12.60;7.60;;;16.30;99.90;;;;;;5032698;28;20477;-33
2022/07/05 04:47:35;;;;;;;10.27;6.53;;;16.30;99.90;;;;;;5030986;28;20505;-32
2022/07/05 04:50:03;;;;;;;9.38;6.00;;;16.40;99.90;;;;;;5032814;28;20548;-32
2022/07/05 04:52:28;;;;;;;10.23;6.72;;;16.40;99.90;;;;;;5032834;28;20034;-33
2022/07/05 04:54:54;;;;;;;9.77;6.35;;;16.50;99.90;;;;;;5014601;28;20048;-48
2022/07/05 04:57:19;;;;;;;11.98;5.93;;;16.50;99.90;;;;;;5020636;28;20018;-40
2022/07/05 04:59:46;;;;;;;9.30;6.60;;;16.60;99.90;;;;;;5032093;28;20036;-40
2022/07/05 05:02:11;;;;;;;11.32;7.13;;;16.60;99.90;;;;;;5032806;28;20135;-51
2022/07/05 05:04:37;;;;;;;11.10;6.80;;;16.70;99.90;;;;;;5032121;28;20485;-38
2022/07/05 05:07:03;;;;;;;8.50;5.90;;;16.80;99.90;;;;;;5032183;28;20512;-38
2022/07/05 05:09:28;;;;;;;11.15;7.20;;;16.80;99.90;;;;;;5032943;28;20025;-33
2022/07/05 05:11:54;;;;;;;8.77;5.22;;;16.90;99.90;;;;;;5032395;28;20489;-35
2022/07/05 05:14:19;;;;;;;6.38;5.25;;;16.90;99.90;;;;;;5030559;28;20056;-33
2022/07/05 05:19:29;;;;;;;11.18;7.05;;;17.00;99.90;;;;;;5032847;28;20181;-34
2022/07/05 05:21:55;;;;;;;10.95;7.32;;;17.00;99.90;;;;;;5031834;28;20108;-33
2022/07/05 05:24:20;;;;;;;12.10;6.45;;;17.00;99.90;;;;;;5029687;28;20474;-34
2022/07/05 05:26:47;;;;;;;15.50;5.60;;;17.10;99.90;;;;;;5026057;28;20492;-40
2022/07/05 05:29:13;;;;;;;16.02;6.43;;;17.00;99.90;;;;;;5031175;28;20041;-40
2022/07/05 05:31:38;;;;;;;8.65;5.95;;;17.10;99.90;;;;;;5032473;28;20404;-40
2022/07/05 05:34:04;;;;;;;9.90;6.53;;;17.10;99.90;;;;;;5031577;28;20524;-38
2022/07/05 05:36:29;;;;;;;13.80;7.07;;;17.10;99.90;;;;;;5032507;28;20440;-40
2022/07/05 05:38:55;;;;;;;14.82;7.32;;;17.20;99.90;;;;;;5031862;28;20022;-42
2022/07/05 05:41:20;;;;;;;15.15;6.80;;;17.20;99.90;;;;;;5025188;28;20040;-40
2022/07/05 05:43:46;;;;;;;8.95;6.13;;;17.20;99.90;;;;;;5025544;28;20050;-39
2022/07/05 05:46:12;;;;;;;10.68;6.40;;;17.30;99.90;;;;;;5005362;28;20030;-40
2022/07/05 05:48:37;;;;;;;10.68;6.85;;;17.40;99.90;;;;;;5025471;28;20022;-41
2022/07/05 05:51:04;;;;;;;12.52;8.20;;;17.50;99.90;;;;;;5041561;28;20413;-36
2022/07/05 05:53:30;;;;;;;13.82;7.10;;;17.60;99.90;;;;;;5031476;28;20022;-40
2022/07/05 05:55:56;;;;;;;9.77;6.82;;;17.70;99.90;;;;;;5014559;28;20025;-44
2022/07/05 05:58:25;;;;;;;8.82;5.70;;;17.80;99.90;;;;;;5014155;28;20453;-54
2022/07/05 06:00:52;;;;;;;11.18;7.65;;;17.90;99.90;;;;;;5032439;28;20477;-40
2022/07/05 06:03:24;;;;;;;10.05;6.43;;;18.00;99.90;;;;;;5027739;28;20030;-39
2022/07/05 06:05:49;;;;;;;15.13;7.35;;;18.10;99.90;;;;;;5018739;28;20030;-40
2022/07/05 06:08:15;;;;;;;16.00;7.93;;;18.20;99.90;;;;;;5005504;28;20045;-40
2022/07/05 06:10:41;;;;;;;12.05;7.25;;;18.40;99.90;;;;;;5016963;28;20119;-39
2022/07/05 06:13:08;;;;;;;13.38;6.38;;;18.60;99.90;;;;;;5035122;28;20061;-39
2022/07/05 06:15:34;;;;;;;11.82;6.78;;;19.00;99.90;;;;;;5028238;28;20029;-39
2022/07/05 06:18:01;;;;;;;10.68;6.57;;;19.50;99.90;;;;;;5047484;28;20412;-40
2022/07/05 06:20:31;;;;;;;12.27;5.60;;;19.70;99.90;;;;;;5035530;28;20018;-32
2022/07/05 06:22:59;;;;;;;9.50;6.47;;;19.60;99.90;;;;;;5033429;28;20449;-33
2022/07/05 06:25:25;;;;;;;10.13;5.32;;;19.60;99.90;;;;;;5034549;28;20540;-47
2022/07/05 06:27:53;;;;;;;12.45;7.30;;;19.40;99.90;;;;;;5033724;28;20033;-32
2022/07/05 06:30:20;;;;;;;8.30;5.18;;;19.40;99.90;;;;;;5034520;28;20025;-32
2022/07/05 06:32:48;;;;;;;13.30;6.60;;;19.40;99.90;;;;;;5034121;28;20043;-33
2022/07/05 06:35:14;;;;;;;5.18;4.57;;;19.40;99.90;;;;;;5017604;28;20171;-38
2022/07/05 06:38:00;;;;;;;9.45;5.22;;;19.40;99.90;;;;;;5035359;28;20115;-40
2022/07/05 06:40:46;;;;;;;5.25;4.13;;;19.40;99.90;;;;;;5025575;28;20436;-40
2022/07/05 06:43:13;;;;;;;11.40;5.28;;;19.40;99.90;;;;;;5032629;28;20366;-36
2022/07/05 06:45:40;;;;;;;4.88;4.40;;;19.40;99.90;;;;;;5035497;28;20079;-37
2022/07/05 06:48:07;;;;;;;6.03;4.32;;;19.40;99.90;;;;;;5034688;28;20492;-38
2022/07/05 06:50:36;;;;;;;8.07;3.85;;;19.40;99.90;;;;;;5033972;28;20416;-40
2022/07/05 06:53:05;;;;;;;6.35;3.30;;;19.40;99.90;;;;;;5015634;28;20091;-36
2022/07/05 06:55:31;;;;;;;7.68;3.85;;;19.40;99.90;;;;;;5024200;28;20048;-39
2022/07/05 06:57:58;;;;;;;4.53;3.67;;;19.50;99.90;;;;;;5035561;28;20431;-40
2022/07/05 07:00:24;;;;;;;8.73;3.97;;;19.40;99.90;;;;;;5034250;28;20029;-41
2022/07/05 07:02:49;;;;;;;5.60;3.33;;;19.40;99.90;;;;;;5033176;28;20051;-39
2022/07/05 07:05:15;;;;;;;5.50;3.40;;;19.40;99.90;;;;;;5017221;28;20029;-39
2022/07/05 07:10:25;;;;;;;8.57;3.80;;;19.40;99.90;;;;;;5030876;28;20036;-40
2022/07/05 07:12:51;;;;;;;6.97;3.78;;;19.50;99.90;;;;;;5034429;28;20029;-39
2022/07/05 07:15:17;;;;;;;7.22;4.13;;;19.50;99.90;;;;;;5034378;28;20049;-40
2022/07/05 07:17:42;;;;;;;4.65;2.90;;;19.50;99.90;;;;;;5034520;28;20500;-39
2022/07/05 07:20:08;;;;;;;4.97;2.47;;;19.40;99.90;;;;;;5033464;28;20028;-39
2022/07/05 07:22:34;;;;;;;4.15;2.55;;;19.40;99.90;;;;;;5029812;28;20038;-42
2022/07/05 07:25:00;;;;;;;3.25;2.03;;;19.40;99.90;;;;;;5017821;28;20762;-44
2022/07/05 07:27:25;;;;;;;2.03;1.83;;;19.50;99.90;;;;;;5017063;28;20022;-37
2022/07/05 07:29:51;;;;;;;3.45;1.60;;;19.60;99.90;;;;;;5034806;28;20026;-39
2022/07/05 07:32:18;;;;;;;1.17;1.00;;;19.70;99.90;;;;;;5034904;28;20088;-39
2022/07/05 07:34:44;;;;;;;1.73;1.10;;;19.90;99.90;;;;;;5033917;28;20041;-39
2022/07/05 07:37:13;;;;;;;0.90;0.90;;;20.10;99.90;;;;;;5034719;28;20547;-40
2022/07/05 07:39:39;;;;;;;2.58;0.90;;;20.20;99.90;;;;;;5032816;28;20017;-38
2022/07/05 07:42:05;;;;;;;2.55;1.20;;;20.00;99.90;;;;;;5032289;28;20112;-40
2022/07/05 07:44:31;;;;;;;6.43;1.13;;;19.90;99.90;;;;;;5014882;28;20103;-40
2022/07/05 07:46:56;;;;;;;2.08;1.00;;;19.70;99.90;;;;;;5034996;28;20469;-40
2022/07/05 07:49:22;;;;;;;1.27;0.80;;;19.60;99.90;;;;;;5034578;28;20032;-40
2022/07/05 07:51:48;;;;;;;1.40;0.70;;;19.70;99.90;;;;;;5035127;28;20029;-31
2022/07/05 07:54:14;;;;;;;1.27;0.95;;;19.80;99.90;;;;;;5032716;28;20025;-30
2022/07/05 07:56:40;;;;;;;2.33;1.13;;;19.90;99.90;;;;;;5032705;28;20482;-41
2022/07/05 07:59:05;;;;;;;1.45;1.33;;;19.90;99.90;;;;;;5035204;28;20386;-40
2022/07/05 08:01:31;;;;;;;2.03;1.27;;;19.80;99.90;;;;;;5031811;28;20018;-39
2022/07/05 08:03:57;;;;;;;2.20;1.30;;;19.60;99.90;;;;;;5034798;28;20052;-37
2022/07/05 08:06:23;;;;;;;2.30;1.08;;;19.60;99.90;;;;;;5034796;28;20408;-35
2022/07/05 08:08:48;;;;;;;1.55;0.80;;;19.70;99.90;;;;;;5034486;28;20057;-38
2022/07/05 08:11:15;;;;;;;2.72;1.10;;;19.90;99.90;;;;;;5034685;28;20032;-39
2022/07/05 08:13:42;;;;;;;3.33;1.05;;;20.20;99.90;;;;;;5018920;28;20058;-38
2022/07/05 08:16:09;;;;;;;2.90;1.10;;;20.80;99.90;;;;;;5022611;28;20487;-38
2022/07/05 08:21:31;;;;;;;0.70;0.70;;;21.80;99.90;;;;;;5033936;28;20103;-39
2022/07/05 08:24:02;;;;;;;2.20;0.80;;;22.20;99.90;;;;;;5034503;28;20022;-71
2022/07/05 08:26:30;;;;;;;1.27;0.80;;;22.40;99.90;;;;;;5033199;28;20076;-51
2022/07/05 08:28:55;;;;;;;2.80;0.80;;;22.50;99.90;;;;;;5032982;28;20104;-40
2022/07/05 08:31:21;;;;;;;2.03;0.90;;;22.60;99.40;;;;;;5034268;28;20045;-44
2022/07/05 08:33:47;;;;;;;0.77;0.77;;;23.10;98.90;;;;;;5043893;28;20467;-40
2022/07/05 08:36:13;;;;;;;3.53;1.30;;;23.80;97.40;;;;;;5036500;28;20026;-40
2022/07/05 08:38:38;;;;;;;1.17;0.55;;;23.80;97.20;;;;;;5031337;28;20083;-39
2022/07/05 08:41:08;;;;;;;2.25;0.63;;;23.20;97.40;;;;;;5033364;28;20069;-40
2022/07/05 08:43:39;;;;;;;3.00;0.95;;;22.70;98.20;;;;;;5027428;28;20587;-41
2022/07/05 08:46:08;;;;;;;0.60;0.60;;;21.90;98.90;;;;;;5030874;28;20026;-39
2022/07/05 08:48:44;;;;;;;3.58;0.60;;;21.50;99.70;;;;;;5027687;28;20026;-38
2022/07/05 08:51:18;;;;;;;4.20;0.70;;;21.50;99.60;;;;;;5030187;28;20021;-38
2022/07/05 08:53:45;;;;;;;0.60;0.60;;;21.20;99.80;;;;;;5014875;28;20095;-40
2022/07/05 08:56:13;;;;;;;0.65;0.65;;;21.10;99.90;;;;;;5033644;28;20025;-40
2022/07/05 08:58:39;;;;;;;3.58;0.77;;;21.00;99.90;;;;;;5029650;28;20096;-39
2022/07/05 09:01:06;;;;;;;2.25;0.60;;;21.30;99.90;;;;;;5033825;28;20508;-40
2022/07/05 09:03:37;;;;;;;2.83;0.70;;;22.20;99.50;;;;;;5033731;28;20429;-40
2022/07/05 09:06:06;;;;;;;3.03;0.82;;;23.00;98.60;;;;;;5041991;28;20354;-45
2022/07/05 09:08:38;;;;;;;0.98;0.68;;;23.60;97.40;;;;;;5014206;28;20071;-40
2022/07/05 09:11:05;;;;;;;1.05;0.60;;;23.60;97.20;;;;;;5033150;28;20512;-44
2022/07/05 09:13:37;;;;;;;3.22;1.10;;;23.40;97.20;;;;;;5032871;28;20508;-39
2022/07/05 09:16:03;;;;;;;3.53;0.95;;;23.20;98.00;;;;;;5033620;28;20484;-39
2022/07/05 09:18:40;;;;;;;0.82;0.82;;;22.70;98.00;;;;;;5032322;28;20477;-40
2022/07/05 09:21:12;;;;;;;8.18;0.90;;;22.30;98.30;;;;;;5030712;28;20120;-33
2022/07/05 09:23:38;;;;;;;4.90;1.20;;;21.90;98.90;;;;;;5031944;28;20045;-33
2022/07/05 09:26:04;;;;;;;1.83;0.70;;;21.80;99.20;;;;;;5032328;28;20114;-35
2022/07/05 09:28:29;;;;;;;1.42;0.90;;;21.60;99.20;;;;;;5032737;28;20556;-34
2022/07/05 09:30:55;;;;;;;6.32;1.10;;;21.50;99.30;;;;;;5031811;28;20164;-36
2022/07/05 09:33:20;;;;;;;5.47;1.05;;;21.30;99.90;;;;;;5014432;28;20413;-32
2022/07/05 09:35:57;;;;;;;2.25;0.63;;;21.10;99.90;;;;;;5031967;28;20029;-40
2022/07/05 09:38:24;;;;;;;3.17;0.80;;;20.90;99.90;;;;;;5029642;28;20466;-38
2022/07/05 09:40:58;;;;;;;3.45;0.57;;;21.00;99.50;;;;;;5031328;28;20034;-41
2022/07/05 09:43:26;;;;;;;0.98;0.70;;;21.50;99.60;;;;;;5014816;28;20045;-38
2022/07/05 09:45:55;;;;;;;1.88;0.63;;;21.80;99.10;;;;;;5032621;28;20025;-39
2022/07/05 09:48:22;;;;;;;0.80;0.47;;;22.20;98.60;;;;;;5014353;28;20405;-40
2022/07/05 09:50:50;;;;;;;1.10;0.55;;;22.70;98.50;;;;;;5032125;28;20377;-40
2022/07/05 09:53:19;;;;;;;2.10;0.60;;;23.00;98.10;;;;;;5033313;28;20481;-45
2022/07/05 09:56:04;;;;;;;4.93;0.95;;;23.20;97.70;;;;;;5013185;28;20111;-38
2022/07/05 09:58:30;;;;;;;2.63;0.60;;;22.90;97.70;;;;;;5029518;28;20036;-40
2022/07/05 10:00:56;;;;;;;2.65;0.73;;;22.40;97.50;;;;;;5032398;28;20465;-55
2022/07/05 10:03:22;;;;;;;5.70;1.20;;;22.00;98.30;;;;;;5032947;28;20022;-39
2022/07/05 10:05:48;;;;;;;0.73;0.52;;;21.60;98.90;;;;;;5031974;28;20025;-42
2022/07/05 10:08:14;;;;;;;5.32;0.98;;;21.20;99.00;;;;;;5033241;28;20009;-46
2022/07/05 10:10:43;;;;;;;6.57;0.85;;;20.80;99.40;;;;;;5031921;28;20041;-39
2022/07/05 10:13:09;;;;;;;1.92;0.68;;;20.50;99.90;;;;;;5032847;28;20029;-37
2022/07/05 10:15:36;;;;;;;3.65;0.55;;;20.30;99.90;;;;;;5033182;28;20401;-36
2022/07/05 10:18:07;;;;;;;0.30;0.30;;;20.30;99.90;;;;;;5032942;28;20482;-41
2022/07/05 10:20:41;;;;;;;6.45;1.10;;;20.70;99.90;;;;;;5031808;28;20384;-34
2022/07/05 10:23:14;;;;;;;3.58;0.68;;;21.60;99.50;;;;;;5032833;28;20018;-36
2022/07/05 10:25:43;;;;;;;0.95;0.63;;;22.60;98.60;;;;;;5031885;28;20083;-35
2022/07/05 10:28:09;;;;;;;2.65;0.57;;;22.40;97.80;;;;;;5011612;28;20025;-35
2022/07/05 10:30:35;;;;;;;5.68;0.75;;;22.00;99.00;;;;;;5031661;28;20065;-35
2022/07/05 10:33:06;;;;;;;3.22;0.70;;;21.30;99.30;;;;;;5028370;28;20056;-36
2022/07/05 10:35:32;;;;;;;4.05;0.60;;;20.90;99.90;;;;;;4998265;28;20033;-33
2022/07/05 10:37:59;;;;;;;1.00;0.65;;;20.80;99.90;;;;;;5032635;28;20022;-34
2022/07/05 10:40:26;;;;;;;2.65;0.70;;;21.00;99.90;;;;;;5032599;28;20367;-36
2022/07/05 10:42:54;;;;;;;;;;;21.50;99.90;;;;;;5031841;28;20049;-33
2022/07/05 10:45:28;;;;;;;2.13;0.95;;;21.60;99.50;;;;;;5022893;28;20006;-35
2022/07/05 10:48:09;;;;;;;1.15;0.60;;;21.10;99.80;;;;;;5023345;28;20033;-37
2022/07/05 10:51:04;;;;;;;4.15;0.77;;;20.70;99.90;;;;;;5023768;28;20037;-38
2022/07/05 10:53:55;;;;;;;2.97;1.02;;;20.30;99.90;;;;;;5023144;28;20095;-37
2022/07/05 10:56:20;;;;;;;4.07;1.00;;;20.50;99.90;;;;;;5033109;28;20025;-35
2022/07/05 10:58:47;;;;;;;3.08;0.60;;;21.10;99.90;;;;;;5034109;28;20031;-33
2022/07/05 11:01:19;;;;;;;1.00;0.90;;;21.40;99.90;;;;;;5033787;28;20473;-34
2022/07/05 11:04:01;;;;;;;5.18;0.70;;;21.20;99.90;;;;;;5030450;28;20481;-34
2022/07/05 11:06:39;;;;;;;5.43;0.93;;;21.40;99.40;;;;;;5035203;28;20041;-32
2022/07/05 11:09:07;;;;;;;1.00;0.50;;;21.60;99.10;;;;;;5035354;28;20123;-32
2022/07/05 11:11:35;;;;;;;2.75;0.50;;;21.70;99.00;;;;;;5031796;28;20440;-31
2022/07/05 11:14:21;;;;;;;1.45;0.85;;;21.40;99.30;;;;;;5032367;28;20473;-32
2022/07/05 11:16:48;;;;;;;1.48;0.90;;;21.10;99.10;;;;;;5033939;28;20029;-34
2022/07/05 11:19:20;;;;;;;0.73;0.57;;;20.90;99.90;;;;;;5031496;28;20504;-38
2022/07/05 11:22:07;;;;;;;3.70;0.80;;;21.20;99.50;;;;;;5037153;28;20075;-34
2022/07/05 11:24:35;;;;;;;3.83;0.70;;;21.30;99.50;;;;;;5042521;28;20466;-39
2022/07/05 11:27:02;;;;;;;;;;;21.20;99.40;;;;;;5016338;28;20037;-32
2022/07/05 11:29:50;;;;;;;4.00;0.75;;;21.40;99.10;;;;;;5031709;28;19918;-35
2022/07/05 11:32:23;;;;;;;3.70;0.80;;;21.50;97.90;;;;;;5033113;28;20116;-31
2022/07/05 11:34:53;;;;;;;2.20;0.77;;;21.30;98.50;;;;;;5035465;28;20029;-50
2022/07/05 11:37:33;;;;;;;8.88;1.75;;;21.30;99.40;;;;;;5035306;28;20504;-41
2022/07/05 11:40:11;;;;;;;2.67;1.20;;;21.30;98.80;;;;;;5016586;28;20041;-40
2022/07/05 11:42:39;;;;;;;;;;;21.20;98.50;;;;;;5033259;28;20037;-39
2022/07/05 11:45:08;;;;;;;0.95;0.75;;;21.30;98.60;;;;;;5032757;28;19917;-40
2022/07/05 11:47:34;;;;;;;2.20;0.65;;;21.50;98.40;;;;;;5035090;28;20465;-41
2022/07/05 11:50:00;;;;;;;1.67;0.65;;;21.60;97.80;;;;;;5034023;28;20029;-38
2022/07/05 11:52:30;;;;;;;4.40;0.57;;;21.70;97.50;;;;;;5034940;28;20531;-42
2022/07/05 11:54:57;;;;;;;3.80;0.80;;;21.80;97.70;;;;;;5034697;28;20029;-41
2022/07/05 11:57:23;;;;;;;1.50;0.55;;;21.70;96.90;;;;;;5035103;28;20033;-40
2022/07/05 11:59:50;;;;;;;4.50;1.00;;;21.80;97.30;;;;;;5034785;28;20025;-40
2022/07/05 12:02:16;;;;;;;1.10;0.53;;;21.90;97.10;;;;;;5034983;28;20048;-41
2022/07/05 12:04:48;;;;;;;1.80;0.57;;;22.00;96.20;;;;;;5016945;28;20025;-40
2022/07/05 12:07:27;;;;;;;2.65;0.80;;;22.10;96.30;;;;;;5034158;28;20042;-40
2022/07/05 12:12:42;;;;;;;0.50;0.38;;;22.20;95.90;;;;;;5033897;28;20048;-45
2022/07/05 12:15:19;;;;;;;0.38;0.30;;;22.00;95.00;;;;;;5033565;28;20025;-40
2022/07/05 12:17:50;;;;;;;0.43;0.32;;;22.00;95.80;;;;;;5034043;28;20481;-40
2022/07/05 12:20:22;;;;;;;1.38;0.30;;;22.10;96.20;;;;;;5032747;28;20029;-40
2022/07/05 12:22:48;;;;;;;2.92;0.35;;;22.30;96.40;;;;;;5034135;28;20129;-37
2022/07/05 12:25:23;;;;;;;2.67;0.85;;;22.30;94.50;;;;;;5032082;28;20107;-40
2022/07/05 12:27:50;;;;;;;1.02;0.40;;;22.00;94.80;;;;;;5030486;28;20507;-42
2022/07/05 12:30:16;;;;;;;;;;;22.10;95.40;;;;;;5032047;28;20473;-40
2022/07/05 12:33:01;;;;;;;1.27;0.35;;;22.10;94.20;;;;;;5032039;28;19915;-48
2022/07/05 12:35:29;;;;;;;0.30;0.30;;;22.10;94.80;;;;;;5034258;28;20483;-40
2022/07/05 12:37:54;;;;;;;0.73;0.30;;;22.30;94.90;;;;;;5034229;28;20104;-41
2022/07/05 12:40:22;;;;;;;2.75;0.60;;;22.40;95.40;;;;;;5033254;28;20109;-43
2022/07/05 12:43:00;;;;;;;1.58;0.32;;;22.50;94.70;;;;;;5034141;28;20056;-42
2022/07/05 12:45:26;;;;;;;2.42;0.30;;;22.80;95.10;;;;;;5034156;28;20029;-40
2022/07/05 12:47:54;;;;;;;0.82;0.45;;;23.00;94.50;;;;;;5044578;28;20024;-40
2022/07/05 12:50:21;;;;;;;3.35;0.45;;;22.80;95.10;;;;;;5054208;28;20472;-41
2022/07/05 12:53:01;;;;;;;1.08;0.75;;;22.90;94.70;;;;;;5033859;28;20028;-40
2022/07/05 12:58:20;;;;;;;1.80;0.40;;;22.60;94.30;;;;;;5033899;28;20040;-41
2022/07/05 13:00:46;;;;;;;1.08;0.52;;;22.00;93.80;;;;;;5033860;28;20029;-40
2022/07/05 13:03:12;;;;;;;1.45;0.60;;;21.50;95.20;;;;;;5033938;28;20017;-41
2022/07/05 13:05:38;;;;;;;0.88;0.50;;;21.60;95.00;;;;;;5034061;28;20112;-45